sensor_id;sensor_type;location;lat;lon;timestamp;P1;durP1;ratioP1;P2;durP2;ratioP2
61407;SDS011;47274;43.054;25.146;2024-02-16T00:00:40;27.50;;;11.60;;
61407;SDS011;47274;43.054;25.146;2024-02-16T00:03:14;23.93;;;11.90;;
61407;SDS011;47274;43.054;25.146;2024-02-16T00:05:46;26.10;;;11.25;;
61407;SDS011;47274;43.054;25.146;2024-02-16T00:08:25;25.77;;;12.13;;
61407;SDS011;47274;43.054;25.146;2024-02-16T00:10:51;24.13;;;11.30;;
61407;SDS011;47274;43.054;25.146;2024-02-16T00:13:24;21.52;;;10.77;;
61407;SDS011;47274;43.054;25.146;2024-02-16T00:16:03;23.90;;;11.73;;
61407;SDS011;47274;43.054;25.146;2024-02-16T00:18:35;22.60;;;11.30;;
61407;SDS011;47274;43.054;25.146;2024-02-16T00:21:04;22.17;;;10.57;;
61407;SDS011;47274;43.054;25.146;2024-02-16T00:23:33;22.80;;;11.17;;
61407;SDS011;47274;43.054;25.146;2024-02-16T00:26:00;21.70;;;10.07;;
61407;SDS011;47274;43.054;25.146;2024-02-16T00:28:38;22.73;;;11.50;;
61407;SDS011;47274;43.054;25.146;2024-02-16T00:35:05;21.43;;;10.47;;
61407;SDS011;47274;43.054;25.146;2024-02-16T00:37:54;20.98;;;9.88;;
61407;SDS011;47274;43.054;25.146;2024-02-16T00:40:23;22.40;;;11.13;;
61407;SDS011;47274;43.054;25.146;2024-02-16T00:42:57;22.13;;;10.83;;
61407;SDS011;47274;43.054;25.146;2024-02-16T00:45:31;22.33;;;10.90;;
61407;SDS011;47274;43.054;25.146;2024-02-16T00:48:09;19.88;;;9.32;;
61407;SDS011;47274;43.054;25.146;2024-02-16T00:50:46;22.37;;;10.70;;
61407;SDS011;47274;43.054;25.146;2024-02-16T00:53:26;25.57;;;14.33;;
61407;SDS011;47274;43.054;25.146;2024-02-16T00:56:13;26.70;;;13.67;;
61407;SDS011;47274;43.054;25.146;2024-02-16T00:58:44;22.93;;;11.90;;
61407;SDS011;47274;43.054;25.146;2024-02-16T01:01:19;25.00;;;11.33;;
61407;SDS011;47274;43.054;25.146;2024-02-16T01:03:47;25.30;;;12.03;;
61407;SDS011;47274;43.054;25.146;2024-02-16T01:06:13;22.77;;;12.13;;
61407;SDS011;47274;43.054;25.146;2024-02-16T01:08:57;21.10;;;11.20;;
61407;SDS011;47274;43.054;25.146;2024-02-16T01:11:30;22.75;;;10.93;;
61407;SDS011;47274;43.054;25.146;2024-02-16T01:14:10;20.33;;;10.10;;
61407;SDS011;47274;43.054;25.146;2024-02-16T01:16:36;21.00;;;10.40;;
61407;SDS011;47274;43.054;25.146;2024-02-16T01:19:13;21.03;;;10.20;;
61407;SDS011;47274;43.054;25.146;2024-02-16T01:21:43;20.90;;;10.13;;
61407;SDS011;47274;43.054;25.146;2024-02-16T01:24:20;19.67;;;9.77;;
61407;SDS011;47274;43.054;25.146;2024-02-16T01:26:57;22.97;;;11.07;;
61407;SDS011;47274;43.054;25.146;2024-02-16T01:29:33;23.17;;;10.80;;
61407;SDS011;47274;43.054;25.146;2024-02-16T01:32:03;21.58;;;10.43;;
61407;SDS011;47274;43.054;25.146;2024-02-16T01:34:44;22.53;;;11.07;;
61407;SDS011;47274;43.054;25.146;2024-02-16T01:37:12;20.33;;;10.40;;
61407;SDS011;47274;43.054;25.146;2024-02-16T01:39:38;21.73;;;11.20;;
61407;SDS011;47274;43.054;25.146;2024-02-16T01:42:19;20.43;;;10.37;;
61407;SDS011;47274;43.054;25.146;2024-02-16T01:44:56;22.97;;;10.70;;
61407;SDS011;47274;43.054;25.146;2024-02-16T01:47:26;21.27;;;10.63;;
61407;SDS011;47274;43.054;25.146;2024-02-16T01:52:31;21.57;;;10.93;;
61407;SDS011;47274;43.054;25.146;2024-02-16T01:55:05;20.63;;;10.53;;
61407;SDS011;47274;43.054;25.146;2024-02-16T01:57:36;20.80;;;10.23;;
61407;SDS011;47274;43.054;25.146;2024-02-16T02:00:11;20.83;;;10.43;;
61407;SDS011;47274;43.054;25.146;2024-02-16T02:02:44;22.00;;;11.23;;
61407;SDS011;47274;43.054;25.146;2024-02-16T02:05:14;20.27;;;10.00;;
61407;SDS011;47274;43.054;25.146;2024-02-16T02:07:43;21.27;;;9.83;;
61407;SDS011;47274;43.054;25.146;2024-02-16T02:10:12;22.70;;;11.53;;
61407;SDS011;47274;43.054;25.146;2024-02-16T02:12:38;21.53;;;10.20;;
61407;SDS011;47274;43.054;25.146;2024-02-16T02:15:08;24.20;;;11.80;;
61407;SDS011;47274;43.054;25.146;2024-02-16T02:17:40;22.57;;;11.73;;
61407;SDS011;47274;43.054;25.146;2024-02-16T02:20:21;21.70;;;11.30;;
61407;SDS011;47274;43.054;25.146;2024-02-16T02:22:53;21.47;;;10.53;;
61407;SDS011;47274;43.054;25.146;2024-02-16T02:25:21;21.37;;;10.80;;
61407;SDS011;47274;43.054;25.146;2024-02-16T02:27:54;22.43;;;10.30;;
61407;SDS011;47274;43.054;25.146;2024-02-16T02:30:35;21.03;;;10.30;;
61407;SDS011;47274;43.054;25.146;2024-02-16T02:33:11;22.47;;;9.93;;
61407;SDS011;47274;43.054;25.146;2024-02-16T02:35:47;20.13;;;9.37;;
61407;SDS011;47274;43.054;25.146;2024-02-16T02:38:17;20.23;;;9.77;;
61407;SDS011;47274;43.054;25.146;2024-02-16T02:40:45;19.13;;;9.27;;
61407;SDS011;47274;43.054;25.146;2024-02-16T02:43:16;19.30;;;9.30;;
61407;SDS011;47274;43.054;25.146;2024-02-16T02:45:48;19.67;;;9.40;;
61407;SDS011;47274;43.054;25.146;2024-02-16T02:48:20;19.37;;;8.77;;
61407;SDS011;47274;43.054;25.146;2024-02-16T02:50:48;20.63;;;10.30;;
61407;SDS011;47274;43.054;25.146;2024-02-16T02:53:28;20.80;;;10.30;;
61407;SDS011;47274;43.054;25.146;2024-02-16T02:55:55;20.23;;;9.90;;
61407;SDS011;47274;43.054;25.146;2024-02-16T02:58:26;19.47;;;9.67;;
61407;SDS011;47274;43.054;25.146;2024-02-16T03:01:00;20.17;;;9.30;;
61407;SDS011;47274;43.054;25.146;2024-02-16T03:03:39;22.47;;;10.63;;
61407;SDS011;47274;43.054;25.146;2024-02-16T03:08:35;19.60;;;8.47;;
61407;SDS011;47274;43.054;25.146;2024-02-16T03:11:04;20.13;;;9.20;;
61407;SDS011;47274;43.054;25.146;2024-02-16T03:13:33;18.97;;;9.00;;
61407;SDS011;47274;43.054;25.146;2024-02-16T03:16:02;19.60;;;8.83;;
61407;SDS011;47274;43.054;25.146;2024-02-16T03:18:36;19.27;;;9.30;;
61407;SDS011;47274;43.054;25.146;2024-02-16T03:21:30;19.43;;;9.30;;
61407;SDS011;47274;43.054;25.146;2024-02-16T03:24:07;20.13;;;9.03;;
61407;SDS011;47274;43.054;25.146;2024-02-16T03:26:53;18.43;;;8.53;;
61407;SDS011;47274;43.054;25.146;2024-02-16T03:29:38;19.97;;;8.80;;
61407;SDS011;47274;43.054;25.146;2024-02-16T03:32:10;17.50;;;8.47;;
61407;SDS011;47274;43.054;25.146;2024-02-16T03:34:41;19.60;;;9.13;;
61407;SDS011;47274;43.054;25.146;2024-02-16T03:37:09;20.00;;;9.90;;
61407;SDS011;47274;43.054;25.146;2024-02-16T03:39:40;19.53;;;9.17;;
61407;SDS011;47274;43.054;25.146;2024-02-16T03:42:12;19.50;;;8.93;;
61407;SDS011;47274;43.054;25.146;2024-02-16T03:44:47;20.23;;;10.10;;
61407;SDS011;47274;43.054;25.146;2024-02-16T03:47:16;21.20;;;9.63;;
61407;SDS011;47274;43.054;25.146;2024-02-16T03:49:45;22.80;;;10.63;;
61407;SDS011;47274;43.054;25.146;2024-02-16T03:52:20;20.10;;;10.17;;
61407;SDS011;47274;43.054;25.146;2024-02-16T03:54:49;20.80;;;9.73;;
61407;SDS011;47274;43.054;25.146;2024-02-16T03:57:31;19.65;;;8.80;;
61407;SDS011;47274;43.054;25.146;2024-02-16T04:00:06;19.03;;;9.50;;
61407;SDS011;47274;43.054;25.146;2024-02-16T04:02:40;18.80;;;8.27;;
61407;SDS011;47274;43.054;25.146;2024-02-16T04:05:13;20.30;;;9.50;;
61407;SDS011;47274;43.054;25.146;2024-02-16T04:07:39;20.60;;;9.50;;
61407;SDS011;47274;43.054;25.146;2024-02-16T04:10:09;20.00;;;9.30;;
61407;SDS011;47274;43.054;25.146;2024-02-16T04:12:35;20.13;;;9.63;;
61407;SDS011;47274;43.054;25.146;2024-02-16T04:15:19;21.47;;;9.50;;
61407;SDS011;47274;43.054;25.146;2024-02-16T04:18:08;19.60;;;9.27;;
61407;SDS011;47274;43.054;25.146;2024-02-16T04:20:37;22.07;;;9.63;;
61407;SDS011;47274;43.054;25.146;2024-02-16T04:23:03;19.13;;;9.03;;
61407;SDS011;47274;43.054;25.146;2024-02-16T04:25:43;19.33;;;8.73;;
61407;SDS011;47274;43.054;25.146;2024-02-16T04:28:09;21.30;;;11.17;;
61407;SDS011;47274;43.054;25.146;2024-02-16T04:30:41;22.93;;;11.70;;
61407;SDS011;47274;43.054;25.146;2024-02-16T04:33:12;25.50;;;13.90;;
61407;SDS011;47274;43.054;25.146;2024-02-16T04:35:45;25.03;;;12.40;;
61407;SDS011;47274;43.054;25.146;2024-02-16T04:40:53;22.67;;;10.83;;
61407;SDS011;47274;43.054;25.146;2024-02-16T04:43:29;22.70;;;10.63;;
61407;SDS011;47274;43.054;25.146;2024-02-16T04:46:15;22.50;;;10.83;;
61407;SDS011;47274;43.054;25.146;2024-02-16T04:48:58;20.57;;;10.70;;
61407;SDS011;47274;43.054;25.146;2024-02-16T04:51:39;22.13;;;10.40;;
61407;SDS011;47274;43.054;25.146;2024-02-16T04:54:08;20.80;;;10.13;;
61407;SDS011;47274;43.054;25.146;2024-02-16T04:56:39;22.80;;;10.70;;
61407;SDS011;47274;43.054;25.146;2024-02-16T05:01:57;21.60;;;10.53;;
61407;SDS011;47274;43.054;25.146;2024-02-16T05:04:25;20.37;;;10.53;;
61407;SDS011;47274;43.054;25.146;2024-02-16T05:07:08;20.87;;;10.30;;
61407;SDS011;47274;43.054;25.146;2024-02-16T05:09:45;22.60;;;10.50;;
61407;SDS011;47274;43.054;25.146;2024-02-16T05:12:23;22.23;;;10.47;;
61407;SDS011;47274;43.054;25.146;2024-02-16T05:14:58;21.50;;;9.73;;
61407;SDS011;47274;43.054;25.146;2024-02-16T05:17:55;23.00;;;10.23;;
61407;SDS011;47274;43.054;25.146;2024-02-16T05:20:28;21.47;;;10.47;;
61407;SDS011;47274;43.054;25.146;2024-02-16T05:25:32;20.20;;;9.33;;
61407;SDS011;47274;43.054;25.146;2024-02-16T05:28:03;19.23;;;9.10;;
61407;SDS011;47274;43.054;25.146;2024-02-16T05:30:48;20.60;;;9.93;;
61407;SDS011;47274;43.054;25.146;2024-02-16T05:33:14;20.90;;;10.73;;
61407;SDS011;47274;43.054;25.146;2024-02-16T05:35:48;23.57;;;11.43;;
61407;SDS011;47274;43.054;25.146;2024-02-16T05:38:20;21.23;;;10.70;;
61407;SDS011;47274;43.054;25.146;2024-02-16T05:41:00;22.97;;;12.20;;
61407;SDS011;47274;43.054;25.146;2024-02-16T05:43:35;22.80;;;12.10;;
61407;SDS011;47274;43.054;25.146;2024-02-16T05:46:06;22.20;;;12.00;;
61407;SDS011;47274;43.054;25.146;2024-02-16T05:48:41;21.60;;;11.23;;
61407;SDS011;47274;43.054;25.146;2024-02-16T05:51:18;26.37;;;12.73;;
61407;SDS011;47274;43.054;25.146;2024-02-16T05:53:44;56.30;;;22.67;;
61407;SDS011;47274;43.054;25.146;2024-02-16T05:56:15;31.60;;;15.33;;
61407;SDS011;47274;43.054;25.146;2024-02-16T05:58:43;28.60;;;14.77;;
61407;SDS011;47274;43.054;25.146;2024-02-16T06:01:35;26.87;;;14.63;;
61407;SDS011;47274;43.054;25.146;2024-02-16T06:04:04;34.80;;;20.17;;
61407;SDS011;47274;43.054;25.146;2024-02-16T06:06:35;38.00;;;21.77;;
61407;SDS011;47274;43.054;25.146;2024-02-16T06:09:04;33.23;;;18.70;;
61407;SDS011;47274;43.054;25.146;2024-02-16T06:11:42;34.33;;;19.47;;
61407;SDS011;47274;43.054;25.146;2024-02-16T06:14:14;33.92;;;19.08;;
61407;SDS011;47274;43.054;25.146;2024-02-16T06:16:40;30.53;;;17.00;;
61407;SDS011;47274;43.054;25.146;2024-02-16T06:19:08;25.87;;;13.20;;
61407;SDS011;47274;43.054;25.146;2024-02-16T06:21:38;25.77;;;12.67;;
61407;SDS011;47274;43.054;25.146;2024-02-16T06:24:06;25.37;;;12.87;;
61407;SDS011;47274;43.054;25.146;2024-02-16T06:26:35;24.70;;;12.60;;
61407;SDS011;47274;43.054;25.146;2024-02-16T06:29:14;24.50;;;12.73;;
61407;SDS011;47274;43.054;25.146;2024-02-16T06:31:51;24.20;;;12.97;;
61407;SDS011;47274;43.054;25.146;2024-02-16T06:34:22;26.83;;;13.97;;
61407;SDS011;47274;43.054;25.146;2024-02-16T06:36:51;25.30;;;13.20;;
61407;SDS011;47274;43.054;25.146;2024-02-16T06:39:25;28.13;;;14.87;;
61407;SDS011;47274;43.054;25.146;2024-02-16T06:42:08;23.80;;;12.80;;
61407;SDS011;47274;43.054;25.146;2024-02-16T06:44:38;26.40;;;13.10;;
61407;SDS011;47274;43.054;25.146;2024-02-16T06:47:09;38.25;;;23.13;;
61407;SDS011;47274;43.054;25.146;2024-02-16T06:49:46;95.80;;;49.13;;
61407;SDS011;47274;43.054;25.146;2024-02-16T06:52:12;156.40;;;71.10;;
61407;SDS011;47274;43.054;25.146;2024-02-16T06:54:38;71.13;;;35.53;;
61407;SDS011;47274;43.054;25.146;2024-02-16T06:57:04;76.83;;;37.20;;
61407;SDS011;47274;43.054;25.146;2024-02-16T06:59:31;45.37;;;23.47;;
61407;SDS011;47274;43.054;25.146;2024-02-16T07:02:12;38.63;;;18.80;;
61407;SDS011;47274;43.054;25.146;2024-02-16T07:04:48;41.17;;;23.27;;
61407;SDS011;47274;43.054;25.146;2024-02-16T07:07:14;42.80;;;26.47;;
61407;SDS011;47274;43.054;25.146;2024-02-16T07:09:41;40.47;;;23.50;;
61407;SDS011;47274;43.054;25.146;2024-02-16T07:12:13;43.07;;;25.67;;
61407;SDS011;47274;43.054;25.146;2024-02-16T07:14:51;77.95;;;46.10;;
61407;SDS011;47274;43.054;25.146;2024-02-16T07:17:26;39.50;;;21.30;;
61407;SDS011;47274;43.054;25.146;2024-02-16T07:19:51;46.57;;;26.83;;
61407;SDS011;47274;43.054;25.146;2024-02-16T07:22:17;44.37;;;24.73;;
61407;SDS011;47274;43.054;25.146;2024-02-16T07:24:43;56.47;;;33.87;;
61407;SDS011;47274;43.054;25.146;2024-02-16T07:27:15;39.67;;;22.55;;
61407;SDS011;47274;43.054;25.146;2024-02-16T07:29:51;33.33;;;17.33;;
61407;SDS011;47274;43.054;25.146;2024-02-16T07:32:23;27.75;;;15.02;;
61407;SDS011;47274;43.054;25.146;2024-02-16T07:34:52;27.15;;;14.48;;
61407;SDS011;47274;43.054;25.146;2024-02-16T07:37:26;28.45;;;15.15;;
61407;SDS011;47274;43.054;25.146;2024-02-16T07:39:52;27.52;;;14.45;;
61407;SDS011;47274;43.054;25.146;2024-02-16T07:42:27;28.40;;;15.57;;
61407;SDS011;47274;43.054;25.146;2024-02-16T07:44:58;28.92;;;16.40;;
61407;SDS011;47274;43.054;25.146;2024-02-16T07:47:24;26.30;;;15.30;;
61407;SDS011;47274;43.054;25.146;2024-02-16T07:49:53;29.50;;;17.17;;
61407;SDS011;47274;43.054;25.146;2024-02-16T07:52:39;29.85;;;16.15;;
61407;SDS011;47274;43.054;25.146;2024-02-16T07:55:11;27.33;;;15.23;;
61407;SDS011;47274;43.054;25.146;2024-02-16T07:57:43;27.63;;;14.75;;
61407;SDS011;47274;43.054;25.146;2024-02-16T08:00:12;26.42;;;14.27;;
61407;SDS011;47274;43.054;25.146;2024-02-16T08:02:50;23.83;;;12.10;;
61407;SDS011;47274;43.054;25.146;2024-02-16T08:05:26;24.70;;;12.45;;
61407;SDS011;47274;43.054;25.146;2024-02-16T08:07:59;23.20;;;12.23;;
61407;SDS011;47274;43.054;25.146;2024-02-16T08:10:33;24.10;;;13.13;;
61407;SDS011;47274;43.054;25.146;2024-02-16T08:13:07;26.58;;;14.80;;
61407;SDS011;47274;43.054;25.146;2024-02-16T08:15:35;53.20;;;34.78;;
61407;SDS011;47274;43.054;25.146;2024-02-16T08:18:04;36.90;;;24.15;;
61407;SDS011;47274;43.054;25.146;2024-02-16T08:20:39;34.58;;;20.95;;
61407;SDS011;47274;43.054;25.146;2024-02-16T08:23:05;29.95;;;18.58;;
61407;SDS011;47274;43.054;25.146;2024-02-16T08:25:42;26.98;;;15.07;;
61407;SDS011;47274;43.054;25.146;2024-02-16T08:28:09;25.80;;;13.82;;
61407;SDS011;47274;43.054;25.146;2024-02-16T08:30:40;25.38;;;13.43;;
61407;SDS011;47274;43.054;25.146;2024-02-16T08:33:15;25.10;;;13.18;;
61407;SDS011;47274;43.054;25.146;2024-02-16T08:35:41;24.90;;;13.43;;
61407;SDS011;47274;43.054;25.146;2024-02-16T08:38:10;25.38;;;13.95;;
61407;SDS011;47274;43.054;25.146;2024-02-16T08:40:41;24.05;;;13.55;;
61407;SDS011;47274;43.054;25.146;2024-02-16T08:43:07;30.05;;;17.42;;
61407;SDS011;47274;43.054;25.146;2024-02-16T08:45:33;27.85;;;16.20;;
61407;SDS011;47274;43.054;25.146;2024-02-16T08:48:05;28.13;;;15.95;;
61407;SDS011;47274;43.054;25.146;2024-02-16T08:50:34;25.52;;;14.35;;
61407;SDS011;47274;43.054;25.146;2024-02-16T08:53:05;25.80;;;13.40;;
61407;SDS011;47274;43.054;25.146;2024-02-16T08:55:39;26.77;;;15.63;;
61407;SDS011;47274;43.054;25.146;2024-02-16T08:58:08;32.22;;;20.10;;
61407;SDS011;47274;43.054;25.146;2024-02-16T09:00:44;46.55;;;33.35;;
61407;SDS011;47274;43.054;25.146;2024-02-16T09:03:25;28.42;;;16.98;;
61407;SDS011;47274;43.054;25.146;2024-02-16T09:05:56;28.25;;;16.48;;
61407;SDS011;47274;43.054;25.146;2024-02-16T09:08:25;29.42;;;16.40;;
61407;SDS011;47274;43.054;25.146;2024-02-16T09:11:02;25.63;;;13.98;;
61407;SDS011;47274;43.054;25.146;2024-02-16T09:13:36;23.83;;;12.90;;
61407;SDS011;47274;43.054;25.146;2024-02-16T09:16:05;35.00;;;21.37;;
61407;SDS011;47274;43.054;25.146;2024-02-16T09:18:37;28.23;;;15.77;;
61407;SDS011;47274;43.054;25.146;2024-02-16T09:21:03;24.95;;;13.68;;
61407;SDS011;47274;43.054;25.146;2024-02-16T09:23:31;25.35;;;13.38;;
61407;SDS011;47274;43.054;25.146;2024-02-16T09:26:03;25.10;;;13.18;;
61407;SDS011;47274;43.054;25.146;2024-02-16T09:28:41;25.23;;;14.23;;
61407;SDS011;47274;43.054;25.146;2024-02-16T09:31:07;26.73;;;15.15;;
61407;SDS011;47274;43.054;25.146;2024-02-16T09:33:39;23.30;;;13.25;;
61407;SDS011;47274;43.054;25.146;2024-02-16T09:36:06;21.55;;;11.75;;
61407;SDS011;47274;43.054;25.146;2024-02-16T09:38:38;23.13;;;12.57;;
61407;SDS011;47274;43.054;25.146;2024-02-16T09:41:04;24.25;;;13.32;;
61407;SDS011;47274;43.054;25.146;2024-02-16T09:43:29;23.48;;;12.18;;
61407;SDS011;47274;43.054;25.146;2024-02-16T09:46:11;22.90;;;11.82;;
61407;SDS011;47274;43.054;25.146;2024-02-16T09:48:44;23.85;;;12.27;;
61407;SDS011;47274;43.054;25.146;2024-02-16T09:51:20;21.92;;;11.63;;
61407;SDS011;47274;43.054;25.146;2024-02-16T09:53:54;20.65;;;11.52;;
61407;SDS011;47274;43.054;25.146;2024-02-16T09:56:21;20.83;;;10.98;;
61407;SDS011;47274;43.054;25.146;2024-02-16T09:58:58;23.50;;;11.45;;
61407;SDS011;47274;43.054;25.146;2024-02-16T10:01:36;21.33;;;11.07;;
61407;SDS011;47274;43.054;25.146;2024-02-16T10:04:08;21.55;;;12.15;;
61407;SDS011;47274;43.054;25.146;2024-02-16T10:06:46;21.17;;;11.00;;
61407;SDS011;47274;43.054;25.146;2024-02-16T10:11:47;22.20;;;10.80;;
61407;SDS011;47274;43.054;25.146;2024-02-16T10:14:13;20.67;;;10.30;;
61407;SDS011;47274;43.054;25.146;2024-02-16T10:16:42;21.17;;;10.50;;
61407;SDS011;47274;43.054;25.146;2024-02-16T10:19:17;20.52;;;9.75;;
61407;SDS011;47274;43.054;25.146;2024-02-16T10:21:51;19.77;;;10.00;;
61407;SDS011;47274;43.054;25.146;2024-02-16T10:24:21;19.95;;;10.70;;
61407;SDS011;47274;43.054;25.146;2024-02-16T10:27:05;20.42;;;9.90;;
61407;SDS011;47274;43.054;25.146;2024-02-16T10:29:43;19.45;;;9.98;;
61407;SDS011;47274;43.054;25.146;2024-02-16T10:32:18;20.92;;;10.93;;
61407;SDS011;47274;43.054;25.146;2024-02-16T10:34:45;19.73;;;10.15;;
61407;SDS011;47274;43.054;25.146;2024-02-16T10:37:13;20.00;;;10.07;;
61407;SDS011;47274;43.054;25.146;2024-02-16T10:39:44;22.33;;;9.70;;
61407;SDS011;47274;43.054;25.146;2024-02-16T10:42:11;21.33;;;10.85;;
61407;SDS011;47274;43.054;25.146;2024-02-16T10:44:50;19.48;;;9.20;;
61407;SDS011;47274;43.054;25.146;2024-02-16T10:47:17;20.58;;;10.07;;
61407;SDS011;47274;43.054;25.146;2024-02-16T10:49:43;20.83;;;10.88;;
61407;SDS011;47274;43.054;25.146;2024-02-16T10:52:16;20.95;;;10.73;;
61407;SDS011;47274;43.054;25.146;2024-02-16T10:54:46;19.65;;;10.18;;
61407;SDS011;47274;43.054;25.146;2024-02-16T10:57:49;20.00;;;10.25;;
61407;SDS011;47274;43.054;25.146;2024-02-16T11:00:20;19.98;;;10.27;;
61407;SDS011;47274;43.054;25.146;2024-02-16T11:03:15;20.65;;;10.38;;
61407;SDS011;47274;43.054;25.146;2024-02-16T11:05:54;19.85;;;10.15;;
61407;SDS011;47274;43.054;25.146;2024-02-16T11:08:24;19.48;;;9.07;;
61407;SDS011;47274;43.054;25.146;2024-02-16T11:10:57;18.67;;;9.10;;
61407;SDS011;47274;43.054;25.146;2024-02-16T11:13:37;25.25;;;11.38;;
61407;SDS011;47274;43.054;25.146;2024-02-16T11:16:31;20.77;;;9.93;;
61407;SDS011;47274;43.054;25.146;2024-02-16T11:18:57;20.73;;;10.10;;
61407;SDS011;47274;43.054;25.146;2024-02-16T11:21:31;19.48;;;9.27;;
61407;SDS011;47274;43.054;25.146;2024-02-16T11:24:07;20.67;;;9.73;;
61407;SDS011;47274;43.054;25.146;2024-02-16T11:29:45;19.15;;;9.90;;
61407;SDS011;47274;43.054;25.146;2024-02-16T11:32:21;19.10;;;9.45;;
61407;SDS011;47274;43.054;25.146;2024-02-16T11:34:50;20.08;;;9.52;;
61407;SDS011;47274;43.054;25.146;2024-02-16T11:37:16;19.42;;;10.02;;
61407;SDS011;47274;43.054;25.146;2024-02-16T11:39:45;21.63;;;10.65;;
61407;SDS011;47274;43.054;25.146;2024-02-16T11:42:44;21.02;;;11.35;;
61407;SDS011;47274;43.054;25.146;2024-02-16T11:45:12;21.63;;;10.63;;
61407;SDS011;47274;43.054;25.146;2024-02-16T11:47:44;20.98;;;11.23;;
61407;SDS011;47274;43.054;25.146;2024-02-16T11:50:12;27.27;;;14.20;;
61407;SDS011;47274;43.054;25.146;2024-02-16T11:52:39;27.42;;;14.82;;
61407;SDS011;47274;43.054;25.146;2024-02-16T11:55:09;20.42;;;9.70;;
61407;SDS011;47274;43.054;25.146;2024-02-16T11:57:45;19.90;;;9.60;;
61407;SDS011;47274;43.054;25.146;2024-02-16T12:00:27;22.77;;;11.25;;
61407;SDS011;47274;43.054;25.146;2024-02-16T12:03:00;28.52;;;14.85;;
61407;SDS011;47274;43.054;25.146;2024-02-16T12:05:29;22.50;;;10.70;;
61407;SDS011;47274;43.054;25.146;2024-02-16T12:07:57;20.42;;;10.10;;
61407;SDS011;47274;43.054;25.146;2024-02-16T12:10:31;20.15;;;10.38;;
61407;SDS011;47274;43.054;25.146;2024-02-16T12:13:03;19.90;;;9.82;;
61407;SDS011;47274;43.054;25.146;2024-02-16T12:15:31;22.02;;;10.50;;
61407;SDS011;47274;43.054;25.146;2024-02-16T12:18:00;18.98;;;8.88;;
61407;SDS011;47274;43.054;25.146;2024-02-16T12:20:26;17.83;;;8.57;;
61407;SDS011;47274;43.054;25.146;2024-02-16T12:22:53;17.23;;;7.82;;
61407;SDS011;47274;43.054;25.146;2024-02-16T12:25:19;17.13;;;8.50;;
61407;SDS011;47274;43.054;25.146;2024-02-16T12:27:50;16.75;;;7.82;;
61407;SDS011;47274;43.054;25.146;2024-02-16T12:30:21;17.05;;;7.38;;
61407;SDS011;47274;43.054;25.146;2024-02-16T12:32:54;17.95;;;8.30;;
61407;SDS011;47274;43.054;25.146;2024-02-16T12:35:20;22.92;;;9.55;;
61407;SDS011;47274;43.054;25.146;2024-02-16T12:38:03;19.83;;;8.52;;
61407;SDS011;47274;43.054;25.146;2024-02-16T12:40:34;19.33;;;8.43;;
61407;SDS011;47274;43.054;25.146;2024-02-16T12:43:02;18.20;;;8.07;;
61407;SDS011;47274;43.054;25.146;2024-02-16T12:45:58;19.80;;;8.68;;
61407;SDS011;47274;43.054;25.146;2024-02-16T12:48:33;17.80;;;8.18;;
61407;SDS011;47274;43.054;25.146;2024-02-16T12:51:08;18.08;;;8.00;;
61407;SDS011;47274;43.054;25.146;2024-02-16T12:53:51;19.70;;;8.98;;
61407;SDS011;47274;43.054;25.146;2024-02-16T12:56:25;24.80;;;14.02;;
61407;SDS011;47274;43.054;25.146;2024-02-16T12:58:51;28.02;;;15.77;;
61407;SDS011;47274;43.054;25.146;2024-02-16T13:01:28;26.30;;;15.10;;
61407;SDS011;47274;43.054;25.146;2024-02-16T13:03:54;22.40;;;10.68;;
61407;SDS011;47274;43.054;25.146;2024-02-16T13:06:23;22.10;;;11.57;;
61407;SDS011;47274;43.054;25.146;2024-02-16T13:08:49;19.52;;;9.55;;
61407;SDS011;47274;43.054;25.146;2024-02-16T13:11:15;21.90;;;11.02;;
61407;SDS011;47274;43.054;25.146;2024-02-16T13:13:53;24.63;;;13.48;;
61407;SDS011;47274;43.054;25.146;2024-02-16T13:16:19;18.05;;;8.45;;
61407;SDS011;47274;43.054;25.146;2024-02-16T13:18:55;17.77;;;8.50;;
61407;SDS011;47274;43.054;25.146;2024-02-16T13:21:21;19.27;;;8.13;;
61407;SDS011;47274;43.054;25.146;2024-02-16T13:23:50;20.25;;;8.55;;
61407;SDS011;47274;43.054;25.146;2024-02-16T13:26:27;18.67;;;8.68;;
61407;SDS011;47274;43.054;25.146;2024-02-16T13:29:01;20.23;;;8.90;;
61407;SDS011;47274;43.054;25.146;2024-02-16T13:31:26;19.33;;;8.75;;
61407;SDS011;47274;43.054;25.146;2024-02-16T13:33:53;16.75;;;7.65;;
61407;SDS011;47274;43.054;25.146;2024-02-16T13:36:30;17.65;;;8.05;;
61407;SDS011;47274;43.054;25.146;2024-02-16T13:38:59;17.38;;;8.00;;
61407;SDS011;47274;43.054;25.146;2024-02-16T13:41:40;16.23;;;7.63;;
61407;SDS011;47274;43.054;25.146;2024-02-16T13:44:09;14.85;;;7.10;;
61407;SDS011;47274;43.054;25.146;2024-02-16T13:46:42;15.52;;;7.22;;
61407;SDS011;47274;43.054;25.146;2024-02-16T13:49:19;15.70;;;7.47;;
61407;SDS011;47274;43.054;25.146;2024-02-16T13:51:49;19.92;;;10.35;;
61407;SDS011;47274;43.054;25.146;2024-02-16T13:54:21;26.25;;;15.85;;
61407;SDS011;47274;43.054;25.146;2024-02-16T13:56:50;22.35;;;12.25;;
61407;SDS011;47274;43.054;25.146;2024-02-16T14:02:09;16.08;;;7.20;;
61407;SDS011;47274;43.054;25.146;2024-02-16T14:04:58;16.17;;;7.63;;
61407;SDS011;47274;43.054;25.146;2024-02-16T14:07:44;15.63;;;7.57;;
61407;SDS011;47274;43.054;25.146;2024-02-16T14:10:11;18.88;;;8.55;;
61407;SDS011;47274;43.054;25.146;2024-02-16T14:12:42;18.45;;;8.32;;
61407;SDS011;47274;43.054;25.146;2024-02-16T14:15:13;21.45;;;10.23;;
61407;SDS011;47274;43.054;25.146;2024-02-16T14:17:41;24.92;;;11.82;;
61407;SDS011;47274;43.054;25.146;2024-02-16T14:20:19;22.77;;;11.13;;
61407;SDS011;47274;43.054;25.146;2024-02-16T14:22:52;32.42;;;17.13;;
61407;SDS011;47274;43.054;25.146;2024-02-16T14:25:24;23.58;;;11.85;;
61407;SDS011;47274;43.054;25.146;2024-02-16T14:28:07;22.33;;;10.98;;
61407;SDS011;47274;43.054;25.146;2024-02-16T14:30:43;25.38;;;12.70;;
61407;SDS011;47274;43.054;25.146;2024-02-16T14:33:12;24.25;;;10.88;;
61407;SDS011;47274;43.054;25.146;2024-02-16T14:35:45;29.35;;;15.18;;
61407;SDS011;47274;43.054;25.146;2024-02-16T14:38:13;31.80;;;14.35;;
61407;SDS011;47274;43.054;25.146;2024-02-16T14:40:39;27.17;;;11.68;;
61407;SDS011;47274;43.054;25.146;2024-02-16T14:43:08;37.72;;;17.00;;
61407;SDS011;47274;43.054;25.146;2024-02-16T14:45:41;31.00;;;13.10;;
61407;SDS011;47274;43.054;25.146;2024-02-16T14:48:10;34.85;;;16.20;;
61407;SDS011;47274;43.054;25.146;2024-02-16T14:50:57;21.90;;;9.85;;
61407;SDS011;47274;43.054;25.146;2024-02-16T14:53:36;27.00;;;12.55;;
61407;SDS011;47274;43.054;25.146;2024-02-16T14:56:19;31.63;;;16.88;;
61407;SDS011;47274;43.054;25.146;2024-02-16T14:58:47;31.50;;;17.48;;
61407;SDS011;47274;43.054;25.146;2024-02-16T15:01:13;37.80;;;22.58;;
61407;SDS011;47274;43.054;25.146;2024-02-16T15:03:44;32.55;;;15.40;;
61407;SDS011;47274;43.054;25.146;2024-02-16T15:06:29;31.52;;;15.70;;
61407;SDS011;47274;43.054;25.146;2024-02-16T15:11:50;29.58;;;15.57;;
61407;SDS011;47274;43.054;25.146;2024-02-16T15:14:16;33.55;;;17.30;;